Terminal Aerodrome Forecast
Issued by NWS Charleston, WV

Current Version | Previous Version | Graphics & Text | Print | Product List | Glossary On
Versions: 1 2 3 4 5 6 7 8 9 10 11 12 13 14 15 16 17 18 19 20 21
000
FTUS41 KRLX 211722
TAFPKB
TAF
KPKB 211722Z 2118/2218 28005KT P6SM BKN015
     FM212300 31005KT P6SM BKN025
     FM220400 VRB03KT P6SM SCT025
     FM220900 00000KT P6SM FEW150
     FM221300 25006KT P6SM FEW250
     FM221700 26010KT P6SM SCT120=

USA.gov is the U.S. government's official web portal to all federal, state and local government web resources and services.